Station: Daly Waters

  Atmospheric Gas Attenuation - ITU Rec 676-11   --------------- db/100km ---------------
Date Time Temp RH % AH g/m3 Dew Point Wind Direction Speed kph Gust kph Barometer mB Rainfall Since 9am 24GHz 47GHz 76GHz 122GHz 134GHz 241GHz
07 08:00 16.9 30 4.31 -0.8 6 9 1014.6 0 10.4 18.9 23.2 60.0 44.5 149.8
07 07:50 16 32 4.36 -0.7 7 9 1013.1 0 10.5 19.1 23.5 60.9 45.5 153.1
07 07:40 15.2 34 4.41 -0.6 6 7 1013.1 0 10.7 19.3 23.9 62.0 46.5 156.5
07 07:30 14.3 36 4.42 -0.5 4 6 1014.3 0 10.7 19.6 24.2 62.8 47.2 158.8
07 07:20 14.1 36 4.37 -0.8 2 4 1013.1 0 10.6 19.5 24.1 62.5 46.7 157.1
07 07:10 13.8 36 4.29 -1 6 6 1013.1 0 10.4 19.5 23.9 62.0 46.0 154.5
07 07:00 14.1 35 4.25 -1.1 4 6 1014 0 10.4 19.4 23.7 61.5 45.4 152.5
07 06:50 14.4 34 4.2 -1.3 6 7 1013.1 0 10.2 19.2 23.4 60.7 44.6 149.9
07 06:40 14.5 34 4.23 -1.2 6 6 1013.1 0 10.3 19.2 23.5 60.9 44.9 150.9
07 06:30 14.9 33 4.21 -1.2 6 7 1013.3 0 10.2 19.1 23.3 60.5 44.5 149.4
07 06:20 15.1 33 4.26 -1.1 4 6 1013.1 0 10.3 19.2 23.4 60.7 44.9 150.9
07 06:10 15.6 32 4.26 -1.1 4 4 1013.1 0 10.3 19.1 23.3 60.4 44.6 150.0
07 06:00 15.6 31 4.12 -1.4 6 7 1012.7 0 10.0 18.9 22.8 59.1 43.1 144.6
07 05:50 16.3 30 4.16 -1.3 6 6 1013.1 0 10.1 18.8 22.8 59.0 43.2 145.0
07 05:40 16.8 29 4.15 -1.4 4 4 1013.1 0 10.1 18.7 22.6 58.5 42.8 143.7
07 05:30 17.3 29 4.27 -0.9 6 9 1012.4 0 10.3 18.7 22.8 59.2 43.8 147.3
07 05:20 17.5 29 4.32 -0.7 6 6 1013.1 0 10.4 18.8 23.0 59.5 44.3 148.9
07 05:10 17.6 29 4.35 -0.7 6 7 1013.1 0 10.5 18.8 23.0 59.7 44.5 149.8
07 04:50 18.2 28 4.35 -0.6 7 9 1013.1 0 10.4 18.7 22.9 59.3 44.2 148.7
07 04:40 18.4 27 4.25 -1 7 9 1013.1 0 10.2 18.5 22.5 58.3 43.0 144.7
07 04:30 18.8 27 4.35 -0.6 7 11 1011.7 0 10.4 18.5 22.7 58.7 43.8 147.5
07 04:20 19.1 27 4.43 -0.4 6 7 1013.1 0 10.6 18.6 22.9 59.3 44.5 150.1
07 04:10 19.4 26 4.34 -0.6 11 17 1013.1 0 10.4 18.4 22.5 58.3 43.4 146.3
07 04:00 19.6 26 4.39 -0.4 11 20 1011.4 0 10.5 18.4 22.6 58.5 43.8 147.5
07 03:50 19.8 26 4.44 -0.3 9 13 1013.1 0 10.6 18.5 22.7 58.9 44.3 149.2
07 03:40 19.8 27 4.61 0.2 9 11 1013.1 0 10.9 18.7 23.3 60.3 46.0 155.4
07 03:30 19.9 27 4.64 0.4 9 17 1011.1 0 11.0 18.6 23.3 60.4 46.2 156.1
07 03:20 20 27 4.67 0.4 6 7 1013.1 0 11.1 18.7 23.4 60.7 46.6 157.3
07 03:10 20.1 28 4.87 1 9 11 1013.1 0 11.5 18.9 24.0 62.3 48.6 164.5
07 03:00 20.3 28 4.92 1.2 9 17 1011 0 11.6 18.9 24.0 62.4 48.9 165.6
07 02:50 20.5 28 4.98 1.3 9 11 1013.1 0 11.7 19.0 24.2 62.9 49.5 167.7
07 02:40 20.6 28 5.01 1.4 9 11 1013.1 0 11.7 19.0 24.3 63.1 49.8 168.6
07 02:30 20.7 28 5.04 1.6 9 17 1011.1 0 11.8 19.0 24.3 63.1 49.9 169.2
07 02:20 20.9 28 5.1 1.7 9 15 1013.1 0 11.9 19.1 24.5 63.6 50.5 171.4
07 02:10 20.8 29 5.25 2.1 7 11 1013.1 0 12.2 19.3 25.0 65.0 52.2 177.1
07 02:00 20.9 30 5.46 2.7 9 19 1011.1 0 12.7 19.5 25.6 66.6 54.2 184.4
07 01:50 20.1 32 5.56 2.9 7 9 1013.1 0 12.9 19.9 26.2 68.2 55.9 190.3
07 01:40 20.2 33 5.77 3.4 6 7 1013.1 0 13.3 20.1 26.9 70.0 58.2 198.1
07 01:30 20 35 6.05 4.1 7 11 1011.2 0 13.9 20.5 27.8 72.5 61.3 209.0
07 01:20 19.6 38 6.41 4.9 7 9 1013.1 0 14.7 21.1 29.2 76.3 65.7 224.5
07 01:10 19.5 40 6.71 5.5 6 7 1013.1 0 15.3 21.6 30.3 79.1 69.2 236.7
07 01:00 19.4 42 7.01 6.2 6 7 1011.3 0 16.0 21.9 31.3 81.9 72.6 248.7
07 00:50 18.9 44 7.13 6.4 6 6 1013.1 0 16.2 22.3 32.0 83.6 74.6 255.6
07 00:40 17.9 48 7.33 6.7 6 7 1013.1 0 16.7 22.8 33.1 86.6 77.9 267.1
07 00:30 17.6 52 7.8 7.6 6 7 1011.2 0 17.7 23.5 34.9 91.3 83.7 287.5
07 00:20 16.5 56 7.86 7.7 6 7 1013.1 0 17.9 24.0 35.6 93.4 85.7 294.5
07 00:10 16 58 7.9 7.7 6 7 1013.1 0 18.0 24.2 36.0 94.4 86.8 298.1
07 00:00 16.6 56 7.91 7.8 0 0 1011.4 0 18.0 24.0 35.7 93.6 86.1 295.9
06 23:50 17.1 55 8.01 8 0 0 1013.1 0 18.2 24.0 35.9 94.2 86.9 298.8
06 23:40 17.6 55 8.25 8.4 0 0 1013.1 0 18.7 24.3 36.6 96.0 89.4 307.3
06 23:30 17.2 54 7.91 7.8 2 4 1011.5 0 18.0 23.8 35.5 92.9 85.5 293.7
06 23:20 17.4 53 7.85 7.7 2 2 1013.1 0 17.8 23.7 35.2 92.3 84.7 290.8
06 23:10 17.9 51 7.79 7.6 2 4 1013.1 0 17.7 23.5 34.8 91.1 83.4 286.4
06 23:00 18.3 51 7.97 8 4 4 1011.6 0 18.0 23.6 35.2 92.3 85.0 292.3
06 22:50 18.3 51 7.97 8 4 4 1013.1 0 18.0 23.7 35.3 92.4 85.2 292.7
06 22:40 18.6 50 7.96 8.2 4 4 1013.1 0 18.0 23.6 35.1 92.0 84.7 291.1
06 22:30 18.6 51 8.12 8.3 4 6 1011.5 0 18.3 23.8 35.6 93.4 86.5 297.5
06 22:20 18.7 49 7.84 8 4 4 1013.1 0 17.8 23.4 34.6 90.7 83.2 285.7
06 22:10 19.3 49 8.13 8.3 4 4 1013.1 0 18.3 23.7 35.4 92.8 86.0 295.8
06 22:00 19.9 48 8.25 8.6 4 4 1011.2 0 18.6 23.6 35.5 93.1 86.7 298.2
06 21:50 20.1 47 8.17 8.4 4 4 1013.1 0 18.4 23.5 35.2 92.3 85.6 294.5
06 21:40 20.4 46 8.14 8.4 4 4 1013.1 0 18.3 23.4 35.0 91.7 84.9 292.2
06 21:30 20.8 45 8.15 8.4 4 6 1011.1 0 18.3 23.2 34.8 91.1 84.5 290.7
06 21:20 21.6 44 8.34 8.8 6 6 1013.1 0 18.7 23.4 35.2 92.2 86.0 296.1
06 21:10 21.7 44 8.39 8.9 4 6 1013.1 0 18.8 23.4 35.3 92.6 86.5 297.8
06 21:00 22 42 8.15 8.5 4 4 1011 0 18.3 22.9 34.3 89.8 83.2 286.4
06 20:50 23.3 41 8.57 9.3 4 4 1013.1 0 19.1 23.3 35.3 92.5 86.9 299.3
06 20:40 23.5 41 8.67 9.8 6 6 1013.1 0 19.3 23.4 35.5 93.2 87.8 302.6
06 20:30 22.4 45 8.94 9.9 6 9 1010.6 0 19.9 23.9 36.9 96.8 92.0 317.3
06 20:20 22 43 8.34 8.8 6 6 1013.1 0 18.7 23.3 35.0 91.8 85.6 294.7
06 20:10 23.2 41 8.52 9.2 4 4 1013.1 0 19.0 23.2 35.1 92.1 86.4 297.6
06 20:00 23.8 39 8.39 9 4 6 1010.1 0 18.7 22.8 34.3 90.0 84.1 289.5
06 19:50 24.7 36 8.15 8.6 4 4 1013.1 0 18.1 22.3 33.2 87.0 80.6 277.6
06 19:40 26.1 35 8.57 9.4 4 4 1013.1 0 19.0 22.6 34.1 89.4 83.9 289.2
06 19:30 26.8 34 8.65 9.6 6 7 1009.7 0 19.1 22.4 33.9 89.0 83.8 289.1
06 19:20 27.3 33 8.64 9.6 6 6 1013.1 0 19.0 22.4 33.8 88.7 83.4 287.7
06 19:10 27.6 32 8.51 9.8 7 7 1013.1 0 18.8 22.1 33.3 87.2 81.7 281.7
06 19:00 27.9 33 8.93 10.1 7 9 1009.3 0 19.6 22.5 34.4 90.3 85.7 295.9
06 18:50 28.4 32 8.9 10.1 6 9 1013.1 0 19.5 22.5 34.2 89.8 85.2 293.9
06 18:40 28.8 31 8.81 10.4 11 15 1013.1 0 19.3 22.2 33.8 88.6 83.8 289.0
06 18:30 29.1 33 9.53 11.2 7 15 1008.8 0 20.8 23.0 35.9 94.3 91.0 314.5
06 18:20 29.5 33 9.74 11.5 7 7 1013.1 0 21.2 23.3 36.6 96.1 93.2 322.3
06 18:10 29.6 33 9.79 11.6 15 19 1013.1 0 21.3 23.4 36.7 96.5 93.7 323.8
06 18:00 29.8 33 9.9 11.8 9 15 1008.5 0 21.5 23.3 36.8 96.8 94.3 326.1
06 17:50 29.8 33 9.9 11.8 9 13 1013.1 0 21.5 23.5 37.0 97.2 94.7 327.3
06 17:40 30.2 31 9.5 11.6 11 15 1013.1 0 20.7 22.8 35.5 93.2 89.8 310.3
06 17:30 30.5 33 10.28 12.4 9 17 1008.2 0 22.3 23.7 37.8 99.3 97.7 338.0
06 17:20 30.2 32 9.81 12.1 11 17 1013.1 0 21.3 23.3 36.5 95.9 93.2 322.2
06 17:10 30.1 32 9.76 12 11 15 1013.1 0 21.2 23.2 36.4 95.6 92.8 320.7
06 17:00 30.3 32 9.86 11.8 11 19 1008 0 21.4 23.1 36.4 95.8 93.2 322.4
06 16:50 30.6 30 9.4 11.5 11 15 1013.1 0 20.5 22.6 35.0 91.8 88.3 305.0
06 16:40 31.3 30 9.76 12.1 17 20 1013.1 0 21.2 22.9 35.9 94.2 91.4 316.1
06 16:30 31.4 32 10.47 12.7 7 15 1007.8 0 22.6 23.7 38.0 99.9 98.7 341.5
06 16:20 30.6 32 10.03 12 9 11 1013.1 0 21.8 23.5 37.1 97.4 95.2 329.2
06 16:10 30.9 31 9.87 12.2 17 24 1013.1 0 21.4 23.2 36.4 95.7 93.1 321.8
06 16:00 30.5 31 9.66 11.9 15 24 1007.6 0 21.0 22.8 35.7 93.7 90.8 313.9
06 15:50 30.6 30 9.4 11.5 15 17 1013.1 0 20.5 22.6 35.0 91.8 88.3 305.0
06 15:40 30.8 31 9.82 11.7 15 20 1013.1 0 21.3 23.1 36.3 95.3 92.6 320.3
06 15:30 30.7 32 10.08 12.1 13 24 1007.7 0 21.9 23.3 37.0 97.3 95.2 329.3
06 15:20 30.6 32 10.03 12 11 11 1013.1 0 21.8 23.5 37.1 97.4 95.2 329.2

Last Refresh: 07-Aug-2020 08:13:55

Most of the information presented on this site is sourced from the Bureau of Meteorology.  Copyright in all material sourced from the Bureau of Meteorology resides with the Commonwealth of Australia.